createdAt,value
2018-08-12T00:00:53.088Z,22.14
2018-08-12T00:03:20.836Z,22.38
2018-08-12T00:05:48.579Z,22.40
2018-08-12T00:08:16.258Z,22.55
2018-08-12T00:10:44.050Z,22.70
2018-08-12T00:13:11.751Z,22.64
2018-08-12T00:15:39.517Z,22.59
2018-08-12T00:18:07.205Z,22.55
2018-08-12T00:20:34.923Z,22.52
2018-08-12T00:23:02.741Z,22.59
2018-08-12T00:25:30.534Z,22.74
2018-08-12T00:27:58.257Z,22.56
2018-08-12T00:30:25.965Z,22.48
2018-08-12T00:32:53.641Z,22.60
2018-08-12T00:35:21.337Z,22.59
2018-08-12T00:37:49.032Z,22.31
2018-08-12T00:40:17.393Z,22.49
2018-08-12T00:42:45.649Z,22.52
2018-08-12T00:45:15.761Z,22.63
2018-08-12T00:47:43.865Z,22.50
2018-08-12T00:50:12.521Z,22.35
2018-08-12T00:52:40.230Z,22.46
2018-08-12T00:55:10.437Z,22.45
2018-08-12T00:57:38.230Z,22.49
2018-08-12T01:00:12.218Z,22.50
2018-08-12T01:02:39.992Z,22.25
2018-08-12T01:05:09.533Z,22.26
2018-08-12T01:07:37.264Z,22.13
2018-08-12T01:10:05.889Z,22.36
2018-08-12T01:12:33.813Z,22.38
2018-08-12T01:15:01.654Z,21.97
2018-08-12T01:17:29.370Z,22.28
2018-08-12T01:19:57.046Z,22.12
2018-08-12T01:22:24.754Z,22.21
2018-08-12T01:24:52.441Z,22.13
2018-08-12T01:27:20.150Z,22.00
2018-08-12T01:29:47.920Z,21.75
2018-08-12T01:32:15.621Z,21.83
2018-08-12T01:34:43.301Z,21.99
2018-08-12T01:37:11.035Z,22.05
2018-08-12T01:39:38.801Z,21.93
2018-08-12T01:42:07.033Z,21.85
2018-08-12T01:44:34.732Z,21.82
2018-08-12T01:47:02.446Z,21.93
2018-08-12T01:49:30.182Z,21.89
2018-08-12T01:51:57.949Z,21.60
2018-08-12T01:54:25.644Z,21.57
2018-08-12T01:56:53.345Z,21.62
2018-08-12T01:59:21.037Z,21.75
2018-08-12T02:01:48.708Z,21.59
2018-08-12T02:04:16.433Z,21.58
2018-08-12T02:06:44.094Z,21.45
2018-08-12T02:09:11.756Z,21.56
2018-08-12T02:11:39.686Z,21.58
2018-08-12T02:14:07.762Z,21.47
2018-08-12T02:16:35.856Z,21.45
2018-08-12T02:19:03.572Z,21.46
2018-08-12T02:21:31.237Z,21.40
2018-08-12T02:23:58.916Z,21.21
2018-08-12T02:26:26.590Z,21.41
2018-08-12T02:28:54.401Z,21.09
2018-08-12T02:31:22.071Z,21.25
2018-08-12T02:33:49.734Z,21.33
2018-08-12T02:36:17.451Z,21.15
2018-08-12T02:38:45.096Z,21.20
2018-08-12T02:41:12.810Z,21.29
2018-08-12T02:43:40.627Z,21.27
2018-08-12T02:46:08.342Z,21.22
2018-08-12T02:48:36.047Z,21.21
2018-08-12T02:51:03.748Z,21.15
2018-08-12T02:53:31.474Z,21.00
2018-08-12T02:55:59.168Z,21.15
2018-08-12T02:58:26.898Z,21.16
2018-08-12T03:00:54.711Z,21.17
2018-08-12T03:03:22.424Z,21.18
2018-08-12T03:05:50.127Z,21.34
2018-08-12T03:08:17.886Z,21.30
2018-08-12T03:10:45.562Z,21.25
2018-08-12T03:13:13.306Z,21.03
2018-08-12T03:15:40.981Z,21.12
2018-08-12T03:18:08.729Z,21.12
2018-08-12T03:20:36.431Z,21.13
2018-08-12T03:23:04.200Z,21.17
2018-08-12T03:25:31.899Z,21.24
2018-08-12T03:27:59.619Z,21.30
2018-08-12T03:30:27.358Z,21.37
2018-08-12T03:32:55.045Z,21.39
2018-08-12T03:35:22.758Z,21.62
2018-08-12T03:37:50.480Z,21.47
2018-08-12T03:40:18.141Z,21.68
2018-08-12T03:42:45.829Z,21.72
2018-08-12T03:45:13.524Z,21.78
2018-08-12T03:47:41.476Z,22.93
2018-08-12T03:50:10.241Z,24.89
2018-08-12T03:52:38.318Z,25.57
2018-08-12T03:55:06.589Z,26.17
2018-08-12T03:57:34.278Z,26.27
2018-08-12T04:00:02.016Z,27.63
2018-08-12T04:02:29.685Z,29.04
2018-08-12T04:04:57.358Z,30.01
2018-08-12T04:07:25.109Z,30.39
2018-08-12T04:09:52.749Z,31.54
2018-08-12T04:12:20.481Z,32.16
2018-08-12T04:14:48.170Z,32.12
2018-08-12T04:17:15.878Z,33.37
2018-08-12T04:19:43.589Z,34.39
2018-08-12T04:22:11.296Z,35.02
2018-08-12T04:24:38.957Z,33.12
2018-08-12T04:27:06.708Z,30.61
2018-08-12T04:29:34.465Z,30.61
2018-08-12T04:32:02.198Z,30.52
2018-08-12T04:34:29.881Z,30.23
2018-08-12T04:36:57.562Z,30.19
2018-08-12T04:39:25.300Z,31.23
2018-08-12T04:41:52.990Z,31.57
2018-08-12T04:44:20.733Z,32.56
2018-08-12T04:46:48.422Z,34.31
2018-08-12T04:49:16.103Z,35.36
2018-08-12T04:51:43.828Z,34.23
2018-08-12T04:54:11.489Z,33.65
2018-08-12T04:56:39.184Z,33.85
2018-08-12T04:59:06.945Z,34.72
2018-08-12T05:01:34.727Z,34.55
2018-08-12T05:04:02.445Z,35.19
2018-08-12T05:06:30.142Z,35.93
2018-08-12T05:08:57.865Z,35.75
2018-08-12T05:11:25.670Z,35.74
2018-08-12T05:13:53.395Z,34.66
2018-08-12T05:16:21.073Z,32.73
2018-08-12T05:18:48.801Z,33.00
2018-08-12T05:21:16.505Z,34.89
2018-08-12T05:23:44.203Z,35.30
2018-08-12T05:26:11.845Z,34.69
2018-08-12T05:28:39.550Z,34.87
2018-08-12T05:31:07.221Z,35.54
2018-08-12T05:33:35.044Z,35.40
2018-08-12T05:36:02.820Z,36.25
2018-08-12T05:38:30.479Z,35.74
2018-08-12T05:40:58.165Z,36.17
2018-08-12T05:43:25.841Z,34.46
2018-08-12T05:45:53.544Z,34.86
2018-08-12T05:48:21.313Z,35.47
2018-08-12T05:50:48.999Z,35.55
2018-08-12T05:53:16.700Z,34.34
2018-08-12T05:55:44.438Z,34.76
2018-08-12T05:58:12.159Z,35.04
2018-08-12T06:00:39.998Z,34.46
2018-08-12T06:03:07.700Z,33.81
2018-08-12T06:05:35.539Z,34.80
2018-08-12T06:08:03.392Z,35.79
2018-08-12T06:10:31.151Z,34.38
2018-08-12T06:12:58.891Z,34.90
2018-08-12T06:15:26.634Z,36.15
2018-08-12T06:17:54.332Z,35.44
2018-08-12T06:20:22.184Z,35.56
2018-08-12T06:22:49.965Z,34.51
2018-08-12T06:25:17.734Z,34.98
2018-08-12T06:27:45.430Z,34.98
2018-08-12T06:30:14.187Z,34.07
2018-08-12T06:35:15.286Z,34.84
2018-08-12T06:37:43.291Z,34.51
2018-08-12T06:40:12.305Z,34.10
2018-08-12T06:42:41.602Z,33.29
2018-08-12T06:45:11.836Z,33.45
2018-08-12T06:47:39.666Z,32.86
2018-08-12T06:50:08.614Z,33.13
2018-08-12T06:52:36.753Z,31.78
2018-08-12T06:55:05.213Z,32.83
2018-08-12T06:57:32.917Z,32.86
2018-08-12T07:00:00.578Z,34.16
2018-08-12T07:02:28.317Z,32.37
2018-08-12T07:04:55.998Z,31.57
2018-08-12T07:07:23.999Z,32.22
2018-08-12T07:09:51.695Z,32.60
2018-08-12T07:12:19.409Z,33.91
2018-08-12T07:14:47.170Z,34.19
2018-08-12T07:17:14.846Z,33.47
2018-08-12T07:19:42.503Z,33.49
2018-08-12T07:22:10.181Z,33.26
2018-08-12T07:24:37.986Z,33.30
2018-08-12T07:27:05.852Z,32.89
2018-08-12T07:29:33.532Z,31.77
2018-08-12T07:32:01.257Z,32.31
2018-08-12T07:34:28.984Z,31.90
2018-08-12T07:36:56.685Z,31.16
2018-08-12T07:39:24.342Z,30.82
2018-08-12T07:41:52.093Z,31.67
2018-08-12T07:44:19.853Z,31.70
2018-08-12T07:46:47.525Z,32.47
2018-08-12T07:49:15.189Z,32.60
2018-08-12T07:51:42.937Z,32.52
2018-08-12T07:54:10.610Z,32.05
2018-08-12T07:56:38.269Z,32.31
2018-08-12T07:59:05.989Z,31.95
2018-08-12T08:01:33.639Z,32.29
2018-08-12T08:04:01.326Z,32.32
2018-08-12T08:06:28.976Z,33.21
2018-08-12T08:08:56.733Z,33.24
2018-08-12T08:11:24.425Z,32.26
2018-08-12T08:13:52.109Z,32.16
2018-08-12T08:16:19.893Z,31.83
2018-08-12T08:18:47.671Z,32.12
2018-08-12T08:21:15.465Z,32.17
2018-08-12T08:23:43.206Z,32.09
2018-08-12T08:26:10.905Z,31.54
2018-08-12T08:28:38.609Z,32.28
2018-08-12T08:31:06.479Z,32.10
2018-08-12T08:33:34.208Z,31.84
2018-08-12T08:36:01.982Z,33.21
2018-08-12T08:38:29.725Z,33.82
2018-08-12T08:40:57.441Z,32.72
2018-08-12T08:43:25.185Z,32.29
2018-08-12T08:45:52.910Z,33.61
2018-08-12T08:48:20.632Z,34.83
2018-08-12T08:50:48.459Z,34.28
2018-08-12T08:53:16.694Z,34.56
2018-08-12T08:55:44.433Z,34.85
2018-08-12T08:58:12.166Z,34.70
2018-08-12T09:00:39.907Z,34.66
2018-08-12T09:03:07.607Z,34.68
2018-08-12T09:05:35.369Z,33.97
2018-08-12T09:08:03.235Z,33.21
2018-08-12T09:10:31.169Z,33.22
2018-08-12T09:12:58.973Z,33.10
2018-08-12T09:15:26.655Z,34.09
2018-08-12T09:17:54.330Z,34.49
2018-08-12T09:20:22.080Z,34.60
2018-08-12T09:22:49.772Z,35.34
2018-08-12T09:25:17.708Z,34.91
2018-08-12T09:27:45.547Z,33.93
2018-08-12T09:30:20.791Z,34.23
2018-08-12T09:32:48.804Z,34.59
2018-08-12T09:35:16.677Z,34.21
2018-08-12T09:37:44.377Z,33.67
2018-08-12T09:40:15.594Z,33.19
2018-08-12T09:42:44.034Z,33.84
2018-08-12T09:45:13.949Z,32.81
2018-08-12T09:47:41.710Z,33.02
2018-08-12T09:50:10.255Z,33.49
2018-08-12T09:52:38.397Z,33.72
2018-08-12T09:55:06.638Z,34.41
2018-08-12T09:57:34.915Z,34.07
2018-08-12T10:00:02.821Z,34.46
2018-08-12T10:02:30.549Z,34.42
2018-08-12T10:04:58.309Z,34.38
2018-08-12T10:07:26.105Z,34.50
2018-08-12T10:09:53.774Z,34.20
2018-08-12T10:12:21.467Z,35.13
2018-08-12T10:14:49.133Z,34.64
2018-08-12T10:17:16.926Z,35.45
2018-08-12T10:19:44.714Z,35.52
2018-08-12T10:22:12.526Z,34.68
2018-08-12T10:24:40.354Z,34.63
2018-08-12T10:27:08.125Z,34.62
2018-08-12T10:29:35.825Z,35.35
2018-08-12T10:32:03.662Z,36.12
2018-08-12T10:34:31.408Z,36.25
2018-08-12T10:36:59.154Z,35.66
2018-08-12T10:39:27.194Z,35.13
2018-08-12T10:41:54.866Z,34.85
2018-08-12T10:44:22.564Z,35.23
2018-08-12T10:46:50.271Z,36.76
2018-08-12T10:49:18.018Z,37.02
2018-08-12T10:51:45.786Z,37.44
2018-08-12T10:54:13.640Z,37.43
2018-08-12T10:56:41.507Z,37.69
2018-08-12T10:59:09.312Z,37.81
2018-08-12T11:01:37.208Z,37.40
2018-08-12T11:04:05.036Z,37.01
2018-08-12T11:06:32.846Z,36.06
2018-08-12T11:09:00.987Z,36.80
2018-08-12T11:11:28.849Z,37.10
2018-08-12T11:13:56.593Z,37.24
2018-08-12T11:16:24.750Z,37.54
2018-08-12T11:18:52.515Z,36.82
2018-08-12T11:21:20.211Z,36.50
2018-08-12T11:23:47.921Z,36.42
2018-08-12T11:26:15.606Z,36.08
2018-08-12T11:28:43.329Z,36.46
2018-08-12T11:31:11.020Z,34.30
2018-08-12T11:33:39.566Z,33.60
2018-08-12T11:36:07.263Z,34.33
2018-08-12T11:38:34.993Z,34.76
2018-08-12T11:41:02.820Z,35.18
2018-08-12T11:43:30.642Z,34.60
2018-08-12T11:45:58.391Z,34.00
2018-08-12T11:48:26.071Z,33.68
2018-08-12T11:50:53.772Z,33.80
2018-08-12T11:53:21.495Z,34.45
2018-08-12T11:55:49.274Z,35.39
2018-08-12T11:58:16.965Z,35.47
2018-08-12T12:00:44.837Z,36.20
2018-08-12T12:03:12.571Z,36.91
2018-08-12T12:05:40.402Z,37.41
2018-08-12T12:08:08.184Z,38.21
2018-08-12T12:10:35.934Z,37.53
2018-08-12T12:13:03.710Z,35.58
2018-08-12T12:15:31.423Z,35.20
2018-08-12T12:17:59.310Z,35.97
2018-08-12T12:20:27.076Z,36.03
2018-08-12T12:22:54.827Z,36.55
2018-08-12T12:25:22.547Z,36.81
2018-08-12T12:27:50.379Z,36.51
2018-08-12T12:30:19.756Z,37.20
2018-08-12T12:32:48.342Z,36.52
2018-08-12T12:35:16.238Z,35.36
2018-08-12T12:37:43.996Z,35.17
2018-08-12T12:40:13.788Z,36.67
2018-08-12T12:42:41.874Z,37.57
2018-08-12T12:45:11.060Z,36.91
2018-08-12T12:47:39.455Z,36.37
2018-08-12T12:50:09.816Z,36.45
2018-08-12T12:52:37.997Z,37.36
2018-08-12T12:55:06.029Z,37.81
2018-08-12T12:57:33.833Z,37.12
2018-08-12T13:00:01.947Z,36.38
2018-08-12T13:02:29.687Z,36.82
2018-08-12T13:04:57.672Z,37.48
2018-08-12T13:07:25.446Z,37.83
2018-08-12T13:09:53.122Z,36.86
2018-08-12T13:12:20.906Z,36.78
2018-08-12T13:14:48.625Z,37.11
2018-08-12T13:17:16.433Z,37.36
2018-08-12T13:19:44.210Z,37.47
2018-08-12T13:22:11.913Z,37.75
2018-08-12T13:24:39.680Z,37.68
2018-08-12T13:27:07.467Z,37.73
2018-08-12T13:29:35.216Z,37.90
2018-08-12T13:32:03.102Z,37.91
2018-08-12T13:34:30.783Z,38.61
2018-08-12T13:36:58.467Z,38.44
2018-08-12T13:39:26.428Z,38.91
2018-08-12T13:41:54.125Z,39.33
2018-08-12T13:44:21.798Z,38.79
2018-08-12T13:46:49.860Z,38.90
2018-08-12T13:49:17.700Z,37.92
2018-08-12T13:51:45.370Z,37.88
2018-08-12T13:54:13.168Z,37.98
2018-08-12T13:56:40.948Z,38.11
2018-08-12T13:59:08.748Z,37.06
2018-08-12T14:01:36.652Z,35.53
2018-08-12T14:04:04.427Z,35.79
2018-08-12T14:06:32.152Z,37.01
2018-08-12T14:08:59.917Z,36.01
2018-08-12T14:11:27.641Z,35.50
2018-08-12T14:13:55.484Z,35.95
2018-08-12T14:16:23.245Z,36.60
2018-08-12T14:18:51.009Z,36.76
2018-08-12T14:21:18.800Z,36.15
2018-08-12T14:23:46.474Z,36.85
2018-08-12T14:26:14.222Z,37.11
2018-08-12T14:28:41.930Z,37.51
2018-08-12T14:31:09.670Z,37.09
2018-08-12T14:33:37.384Z,36.84
2018-08-12T14:36:05.094Z,36.64
2018-08-12T14:38:32.789Z,36.87
2018-08-12T14:41:00.502Z,37.39
2018-08-12T14:43:28.247Z,36.90
2018-08-12T14:45:55.933Z,36.64
2018-08-12T14:48:23.625Z,36.90
2018-08-12T14:50:51.378Z,36.14
2018-08-12T14:53:19.085Z,36.10
2018-08-12T14:55:46.810Z,35.98
2018-08-12T14:58:14.527Z,36.10
2018-08-12T15:00:42.211Z,36.69
2018-08-12T15:03:10.058Z,37.03
2018-08-12T15:05:37.920Z,37.15
2018-08-12T15:08:05.638Z,37.38
2018-08-12T15:10:33.414Z,36.80
2018-08-12T15:13:01.106Z,36.61
2018-08-12T15:15:28.785Z,37.23
2018-08-12T15:17:56.500Z,37.27
2018-08-12T15:20:24.258Z,36.58
2018-08-12T15:22:52.195Z,35.87
2018-08-12T15:25:20.638Z,36.23
2018-08-12T15:27:48.546Z,35.91
2018-08-12T15:30:16.312Z,35.44
2018-08-12T15:32:44.035Z,35.08
2018-08-12T15:35:11.818Z,34.80
2018-08-12T15:37:39.548Z,35.08
2018-08-12T15:40:09.673Z,35.31
2018-08-12T15:42:37.361Z,34.56
2018-08-12T15:45:07.518Z,34.66
2018-08-12T15:47:35.312Z,33.95
2018-08-12T15:50:03.216Z,33.30
2018-08-12T15:52:30.925Z,33.80
2018-08-12T15:54:58.672Z,33.97
2018-08-12T15:57:26.394Z,34.36
2018-08-12T15:59:54.464Z,34.39
2018-08-12T16:02:22.310Z,34.80
2018-08-12T16:04:50.023Z,33.98
2018-08-12T16:07:17.729Z,34.16
2018-08-12T16:09:45.571Z,33.87
2018-08-12T16:12:13.305Z,33.32
2018-08-12T16:14:41.022Z,32.74
2018-08-12T16:17:08.855Z,32.49
2018-08-12T16:19:36.547Z,32.73
2018-08-12T16:22:04.361Z,32.63
2018-08-12T16:24:32.178Z,32.75
2018-08-12T16:26:59.844Z,32.37
2018-08-12T16:29:27.527Z,32.13
2018-08-12T16:31:55.219Z,32.14
2018-08-12T16:34:22.903Z,31.65
2018-08-12T16:36:50.605Z,31.70
2018-08-12T16:39:18.353Z,31.50
2018-08-12T16:41:46.083Z,31.53
2018-08-12T16:44:14.732Z,31.33
2018-08-12T16:46:42.471Z,31.37
2018-08-12T16:49:10.230Z,31.20
2018-08-12T16:51:37.981Z,31.17
2018-08-12T16:54:06.220Z,31.18
2018-08-12T16:56:33.972Z,31.02
2018-08-12T16:59:01.653Z,30.91
2018-08-12T17:01:29.378Z,30.89
2018-08-12T17:03:57.198Z,30.93
2018-08-12T17:06:24.941Z,30.68
2018-08-12T17:08:52.695Z,30.50
2018-08-12T17:11:20.464Z,30.44
2018-08-12T17:13:48.294Z,30.10
2018-08-12T17:16:15.994Z,30.17
2018-08-12T17:18:43.696Z,30.16
2018-08-12T17:21:11.422Z,29.85
2018-08-12T17:23:39.100Z,29.69
2018-08-12T17:26:06.986Z,29.53
2018-08-12T17:28:34.630Z,29.18
2018-08-12T17:31:02.358Z,29.10
2018-08-12T17:33:30.157Z,28.89
2018-08-12T17:35:57.879Z,28.83
2018-08-12T17:38:25.665Z,28.57
2018-08-12T17:40:53.433Z,28.26
2018-08-12T17:43:21.148Z,28.07
2018-08-12T17:45:48.894Z,28.05
2018-08-12T17:48:16.790Z,28.13
2018-08-12T17:50:44.715Z,28.10
2018-08-12T17:53:12.556Z,27.89
2018-08-12T17:55:40.260Z,27.89
2018-08-12T17:58:08.079Z,27.83
2018-08-12T18:00:35.828Z,27.85
2018-08-12T18:03:03.679Z,27.75
2018-08-12T18:05:31.398Z,27.67
2018-08-12T18:07:59.090Z,27.65
2018-08-12T18:10:26.778Z,27.62
2018-08-12T18:12:54.425Z,27.59
2018-08-12T18:15:22.118Z,27.70
2018-08-12T18:17:49.790Z,27.74
2018-08-12T18:20:17.530Z,27.81
2018-08-12T18:22:45.213Z,27.81
2018-08-12T18:25:12.905Z,27.76
2018-08-12T18:27:41.395Z,27.70
2018-08-12T18:30:12.645Z,27.77
2018-08-12T18:32:40.585Z,27.62
2018-08-12T18:35:09.202Z,27.60
2018-08-12T18:37:36.916Z,27.67
2018-08-12T18:40:05.769Z,27.62
2018-08-12T18:42:33.524Z,27.47
2018-08-12T18:45:01.274Z,27.47
2018-08-12T18:47:28.985Z,27.54
2018-08-12T18:49:56.778Z,27.39
2018-08-12T18:52:24.528Z,27.37
2018-08-12T18:54:52.304Z,27.36
2018-08-12T18:57:20.001Z,27.24
2018-08-12T18:59:47.649Z,27.29
2018-08-12T19:02:15.393Z,27.28
2018-08-12T19:04:43.121Z,27.23
2018-08-12T19:07:10.941Z,27.09
2018-08-12T19:09:38.666Z,26.93
2018-08-12T19:12:06.427Z,27.02
2018-08-12T19:14:34.151Z,26.95
2018-08-12T19:17:01.890Z,26.84
2018-08-12T19:19:29.562Z,26.86
2018-08-12T19:21:57.380Z,26.64
2018-08-12T19:24:25.135Z,26.43
2018-08-12T19:26:52.886Z,26.52
2018-08-12T19:29:20.647Z,26.40
2018-08-12T19:31:48.349Z,26.50
2018-08-12T19:34:16.169Z,26.25
2018-08-12T19:36:43.870Z,26.33
2018-08-12T19:39:11.893Z,26.28
2018-08-12T19:41:39.861Z,26.23
2018-08-12T19:44:08.039Z,26.34
2018-08-12T19:46:36.059Z,26.33
2018-08-12T19:49:03.712Z,26.28
2018-08-12T19:51:31.402Z,26.37
2018-08-12T19:53:59.710Z,26.21
2018-08-12T19:56:27.450Z,26.39
2018-08-12T19:58:55.139Z,26.38
2018-08-12T20:01:22.901Z,26.28
2018-08-12T20:03:50.646Z,26.37
2018-08-12T20:06:18.616Z,26.34
2018-08-12T20:08:46.377Z,26.46
2018-08-12T20:11:14.081Z,26.51
2018-08-12T20:13:41.838Z,26.61
2018-08-12T20:16:09.776Z,26.40
2018-08-12T20:18:37.589Z,26.37
2018-08-12T20:21:05.308Z,26.71
2018-08-12T20:23:33.009Z,26.67
2018-08-12T20:26:00.793Z,26.55
2018-08-12T20:28:28.661Z,26.21
2018-08-12T20:30:56.363Z,25.98
2018-08-12T20:33:24.086Z,25.69
2018-08-12T20:35:51.850Z,25.53
2018-08-12T20:38:19.616Z,25.68
2018-08-12T20:40:47.384Z,25.56
2018-08-12T20:43:15.128Z,25.55
2018-08-12T20:45:42.898Z,25.43
2018-08-12T20:48:10.602Z,25.19
2018-08-12T20:50:38.403Z,25.19
2018-08-12T20:53:06.150Z,25.15
2018-08-12T20:55:33.885Z,25.16
2018-08-12T20:58:01.578Z,25.10
2018-08-12T21:00:29.246Z,25.14
2018-08-12T21:02:56.982Z,25.03
2018-08-12T21:05:24.681Z,25.04
2018-08-12T21:07:52.381Z,25.04
2018-08-12T21:10:20.102Z,25.02
2018-08-12T21:12:47.821Z,24.99
2018-08-12T21:15:15.546Z,24.94
2018-08-12T21:17:43.212Z,24.79
2018-08-12T21:20:10.994Z,24.60
2018-08-12T21:22:39.061Z,24.39
2018-08-12T21:25:06.946Z,24.11
2018-08-12T21:27:34.816Z,24.12
2018-08-12T21:30:02.654Z,24.16
2018-08-12T21:32:30.346Z,24.08
2018-08-12T21:34:58.014Z,24.13
2018-08-12T21:37:25.665Z,24.10
2018-08-12T21:39:53.341Z,24.08
2018-08-12T21:42:21.095Z,23.96
2018-08-12T21:44:48.814Z,23.92
2018-08-12T21:47:16.490Z,23.99
2018-08-12T21:49:44.155Z,24.00
2018-08-12T21:52:11.882Z,24.02
2018-08-12T21:54:39.577Z,23.70
2018-08-12T21:57:07.229Z,23.75
2018-08-12T21:59:34.887Z,23.48
2018-08-12T22:02:02.757Z,22.94
2018-08-12T22:04:30.486Z,22.70
2018-08-12T22:06:58.251Z,22.67
2018-08-12T22:09:25.902Z,22.50
2018-08-12T22:11:53.566Z,22.50
2018-08-12T22:14:21.254Z,22.46
2018-08-12T22:16:48.969Z,22.55
2018-08-12T22:19:16.641Z,22.52
2018-08-12T22:21:44.410Z,22.52
2018-08-12T22:24:12.115Z,22.49
2018-08-12T22:26:39.831Z,22.46
2018-08-12T22:29:07.500Z,22.43
2018-08-12T22:31:35.281Z,22.33
2018-08-12T22:34:03.069Z,22.22
2018-08-12T22:36:30.817Z,22.22
2018-08-12T22:38:58.539Z,22.19
2018-08-12T22:41:26.214Z,22.25
2018-08-12T22:43:53.911Z,22.33
2018-08-12T22:46:21.634Z,22.36
2018-08-12T22:48:49.285Z,22.31
2018-08-12T22:51:16.985Z,22.43
2018-08-12T22:53:44.660Z,22.45
2018-08-12T22:56:12.455Z,22.60
2018-08-12T22:58:40.156Z,22.65
2018-08-12T23:01:08.771Z,22.58
2018-08-12T23:03:36.467Z,22.45
2018-08-12T23:06:04.202Z,22.33
2018-08-12T23:08:31.905Z,22.26
2018-08-12T23:10:59.573Z,22.18
2018-08-12T23:13:27.279Z,22.14
2018-08-12T23:16:16.485Z,22.08
2018-08-12T23:18:44.197Z,22.16
2018-08-12T23:21:12.945Z,22.09
2018-08-12T23:23:42.213Z,22.13
2018-08-12T23:26:11.337Z,22.08
2018-08-12T23:28:39.044Z,22.03
2018-08-12T23:31:06.934Z,21.97
2018-08-12T23:33:34.617Z,22.18
2018-08-12T23:36:02.287Z,22.21
2018-08-12T23:38:29.960Z,22.29
2018-08-12T23:40:57.625Z,22.11
2018-08-12T23:43:25.793Z,22.20
2018-08-12T23:45:53.477Z,22.25
2018-08-12T23:48:21.173Z,22.08
2018-08-12T23:50:48.881Z,22.20
2018-08-12T23:53:16.558Z,22.19
2018-08-12T23:55:44.262Z,22.38
2018-08-12T23:58:12.054Z,22.43
